Time;durP1;ratioP1;P1;durP2;ratioP2;P2;SDS_P1;SDS_P2;PMS_P1;PMS_P2;Temp;Humidity;BMP_temperature;BMP_pressure;BME280_temperature;BME280_humidity;BME280_pressure;Samples;Min_cycle;Max_cycle;Signal;HPM_P1;HPM_P2
2021/09/23 00:00:22;;;;;;;12.10;8.20;;;11.30;99.90;;;;;;5034217;28;20520;-55
2021/09/23 00:03:09;;;;;;;13.40;8.77;;;11.30;99.90;;;;;;5034432;28;20911;-58
2021/09/23 00:05:37;;;;;;;11.00;7.63;;;11.40;99.90;;;;;;5034158;28;20855;-55
2021/09/23 00:08:04;;;;;;;10.10;7.53;;;11.40;99.90;;;;;;5034469;28;20973;-55
2021/09/23 00:10:36;;;;;;;12.53;8.00;;;11.40;99.90;;;;;;5032598;28;20452;-56
2021/09/23 00:13:05;;;;;;;13.10;8.10;;;11.40;99.90;;;;;;5024254;28;20481;-55
2021/09/23 00:15:33;;;;;;;13.70;8.70;;;11.40;99.90;;;;;;5043288;28;20946;-55
2021/09/23 00:18:05;;;;;;;12.50;8.57;;;11.30;99.90;;;;;;5035526;28;20452;-55
2021/09/23 00:20:35;;;;;;;13.33;9.00;;;11.20;99.90;;;;;;5052622;28;20809;-55
2021/09/23 00:23:02;;;;;;;14.23;8.80;;;11.10;99.90;;;;;;5054136;28;20822;-55
2021/09/23 00:25:29;;;;;;;14.90;8.70;;;11.10;99.90;;;;;;5046494;28;21019;-55
2021/09/23 00:27:57;;;;;;;13.80;8.13;;;11.10;99.90;;;;;;5033672;28;20452;-55
2021/09/23 00:30:28;;;;;;;14.37;9.83;;;11.20;99.90;;;;;;5033694;28;20448;-54
2021/09/23 00:32:55;;;;;;;13.80;8.60;;;11.20;99.90;;;;;;5034918;28;20469;-55
2021/09/23 00:35:26;;;;;;;13.53;8.60;;;11.20;99.90;;;;;;5033591;28;20452;-56
2021/09/23 00:37:54;;;;;;;16.30;9.43;;;11.20;99.90;;;;;;5036564;28;20464;-54
2021/09/23 00:40:25;;;;;;;13.93;8.90;;;11.20;99.90;;;;;;5053439;28;20444;-54
2021/09/23 00:42:52;;;;;;;15.60;9.60;;;11.10;99.90;;;;;;5037624;28;20551;-56
2021/09/23 00:45:20;;;;;;;16.07;9.37;;;11.10;99.90;;;;;;5033702;28;20574;-54
2021/09/23 00:47:48;;;;;;;12.17;8.33;;;11.00;99.90;;;;;;5033671;28;20534;-55
2021/09/23 00:50:17;;;;;;;11.67;8.10;;;10.90;99.90;;;;;;5033496;28;20456;-54
2021/09/23 00:52:45;;;;;;;14.50;8.20;;;11.00;99.90;;;;;;5034156;28;20476;-56
2021/09/23 00:55:13;;;;;;;13.20;9.00;;;11.00;99.90;;;;;;5049877;28;20957;-55
2021/09/23 00:57:41;;;;;;;11.30;7.90;;;11.00;99.90;;;;;;5053352;28;20862;-56
2021/09/23 01:00:11;;;;;;;13.77;9.00;;;10.90;99.90;;;;;;5024762;28;20462;-55
2021/09/23 01:02:38;;;;;;;12.27;8.47;;;10.90;99.90;;;;;;5019296;28;20993;-55
2021/09/23 01:05:06;;;;;;;12.60;8.93;;;11.00;99.90;;;;;;5041045;28;20478;-54
2021/09/23 01:07:33;;;;;;;15.10;8.90;;;10.90;99.90;;;;;;5032911;28;20452;-55
2021/09/23 01:10:03;;;;;;;14.00;8.87;;;11.00;99.90;;;;;;5033108;28;20460;-55
2021/09/23 01:12:31;;;;;;;13.90;8.97;;;11.00;99.90;;;;;;5032592;28;20503;-55
2021/09/23 01:15:00;;;;;;;13.20;8.73;;;11.00;99.90;;;;;;5033073;28;21016;-55
2021/09/23 01:17:27;;;;;;;12.53;8.27;;;11.00;99.90;;;;;;5038436;28;20452;-55
2021/09/23 01:19:54;;;;;;;13.83;8.47;;;11.00;99.90;;;;;;5026938;28;20494;-56
2021/09/23 01:22:23;;;;;;;12.77;8.53;;;11.00;99.90;;;;;;5032193;28;20488;-55
2021/09/23 01:24:50;;;;;;;12.23;8.03;;;10.90;99.90;;;;;;5033110;28;20453;-55
2021/09/23 01:27:17;;;;;;;15.20;9.03;;;10.80;99.90;;;;;;5032854;28;20950;-55
2021/09/23 01:29:45;;;;;;;12.53;8.60;;;10.80;99.90;;;;;;5051766;28;20463;-56
2021/09/23 01:32:12;;;;;;;12.73;7.53;;;10.80;99.90;;;;;;5049616;28;20493;-54
2021/09/23 01:34:40;;;;;;;16.33;10.07;;;10.80;99.90;;;;;;5033095;28;20510;-54
2021/09/23 01:37:08;;;;;;;15.53;9.10;;;10.80;99.90;;;;;;5032917;28;20563;-55
2021/09/23 01:39:37;;;;;;;12.10;7.90;;;10.80;99.90;;;;;;5051181;28;20456;-56
2021/09/23 01:42:05;;;;;;;15.33;9.80;;;10.70;99.90;;;;;;5051669;28;20490;-55
2021/09/23 01:44:32;;;;;;;16.10;9.30;;;10.60;99.90;;;;;;5012806;28;21078;-55
2021/09/23 01:46:59;;;;;;;13.77;8.63;;;10.40;99.90;;;;;;5012805;28;20877;-56
2021/09/23 01:49:26;;;;;;;12.80;8.97;;;10.40;99.90;;;;;;5031069;28;20514;-55
2021/09/23 01:51:53;;;;;;;13.73;8.70;;;10.50;99.90;;;;;;5030527;28;20896;-55
2021/09/23 01:54:21;;;;;;;13.27;8.87;;;10.50;99.90;;;;;;5039619;28;20455;-55
2021/09/23 01:56:53;;;;;;;11.23;8.17;;;10.50;99.90;;;;;;5040385;28;20866;-56
2021/09/23 01:59:21;;;;;;;13.77;8.97;;;10.50;99.90;;;;;;5033439;28;20457;-55
2021/09/23 02:01:48;;;;;;;13.00;8.30;;;10.50;99.90;;;;;;5031824;28;20571;-55
2021/09/23 02:04:14;;;;;;;13.27;9.33;;;10.40;99.90;;;;;;5032357;28;20450;-54
2021/09/23 02:06:42;;;;;;;11.23;7.87;;;10.50;99.90;;;;;;5033186;28;20502;-56
2021/09/23 02:09:09;;;;;;;13.03;8.70;;;10.30;99.90;;;;;;5035895;28;20448;-53
2021/09/23 02:11:36;;;;;;;15.60;8.87;;;10.30;99.90;;;;;;5038454;28;20472;-55
2021/09/23 02:14:05;;;;;;;14.00;9.33;;;10.20;99.90;;;;;;5032111;28;20452;-56
2021/09/23 02:16:32;;;;;;;12.10;8.17;;;10.00;99.90;;;;;;5031951;28;20518;-55
2021/09/23 02:18:59;;;;;;;13.83;8.27;;;10.10;99.90;;;;;;5032004;28;20471;-54
2021/09/23 02:21:26;;;;;;;12.00;8.60;;;10.10;99.90;;;;;;5031166;28;21048;-55
2021/09/23 02:23:53;;;;;;;14.77;8.57;;;10.10;99.90;;;;;;5048295;28;20444;-56
2021/09/23 02:26:20;;;;;;;12.87;8.23;;;10.10;99.90;;;;;;5034336;28;20448;-54
2021/09/23 02:28:47;;;;;;;13.50;8.23;;;10.20;99.90;;;;;;5031223;28;20537;-56
2021/09/23 02:31:17;;;;;;;13.53;9.03;;;10.20;99.90;;;;;;5031162;28;20452;-54
2021/09/23 02:33:44;;;;;;;14.30;8.20;;;10.20;99.90;;;;;;5031967;28;20460;-55
2021/09/23 02:36:12;;;;;;;13.07;8.43;;;10.20;99.90;;;;;;5031861;28;20540;-56
2021/09/23 02:38:39;;;;;;;12.17;8.53;;;10.20;99.90;;;;;;5031593;28;20946;-55
2021/09/23 02:41:06;;;;;;;14.17;9.37;;;10.20;99.90;;;;;;5031085;28;20453;-55
2021/09/23 02:43:33;;;;;;;13.07;8.37;;;10.20;99.90;;;;;;5029780;28;20915;-55
2021/09/23 02:46:02;;;;;;;14.00;8.80;;;10.20;99.90;;;;;;5031320;28;20460;-57
2021/09/23 02:48:30;;;;;;;13.80;8.70;;;10.20;99.90;;;;;;5031618;28;20973;-54
2021/09/23 02:50:57;;;;;;;12.43;8.70;;;10.20;99.90;;;;;;5031062;28;20453;-54
2021/09/23 02:53:24;;;;;;;15.90;8.83;;;10.10;99.90;;;;;;5043985;28;20896;-56
2021/09/23 02:55:51;;;;;;;12.67;8.83;;;10.20;99.90;;;;;;5086321;22;20497;-60
2021/09/23 02:58:18;;;;;;;15.70;9.60;;;10.20;99.90;;;;;;5069710;28;20478;-60
2021/09/23 03:00:45;;;;;;;13.80;8.43;;;10.20;99.90;;;;;;5069701;28;20459;-60
2021/09/23 03:03:14;;;;;;;14.27;9.30;;;10.10;99.90;;;;;;5066552;28;20528;-60
2021/09/23 03:05:43;;;;;;;11.30;7.77;;;10.10;99.90;;;;;;5063695;28;20481;-60
2021/09/23 03:08:10;;;;;;;13.53;8.70;;;10.10;99.90;;;;;;5052594;28;20543;-60
2021/09/23 03:10:38;;;;;;;14.57;8.87;;;10.00;99.90;;;;;;5057837;28;20450;-59
2021/09/23 03:13:05;;;;;;;15.93;9.40;;;10.00;99.90;;;;;;5051348;28;20969;-60
2021/09/23 03:15:32;;;;;;;13.50;8.73;;;10.00;99.90;;;;;;5051230;28;20522;-59
2021/09/23 03:17:59;;;;;;;16.07;9.30;;;9.90;99.90;;;;;;5052377;28;20447;-60
2021/09/23 03:20:26;;;;;;;17.97;10.00;;;9.90;99.90;;;;;;5051306;28;20829;-59
2021/09/23 03:22:55;;;;;;;17.73;10.30;;;9.90;99.90;;;;;;5068046;28;20902;-59
2021/09/23 03:25:23;;;;;;;17.00;10.20;;;10.00;99.90;;;;;;5066935;28;20905;-60
2021/09/23 03:27:51;;;;;;;14.77;9.27;;;9.90;99.90;;;;;;5051164;28;20455;-61
2021/09/23 03:30:21;;;;;;;14.87;9.10;;;9.90;99.90;;;;;;5053013;28;20524;-60
2021/09/23 03:32:48;;;;;;;15.53;9.90;;;9.90;99.90;;;;;;5068349;28;20439;-60
2021/09/23 03:35:15;;;;;;;15.70;9.80;;;9.80;99.90;;;;;;5067269;28;20470;-60
2021/09/23 03:37:42;;;;;;;18.07;10.10;;;9.80;99.90;;;;;;5061845;28;20439;-60
2021/09/23 03:40:11;;;;;;;15.93;9.20;;;9.90;99.90;;;;;;5070703;28;20446;-61
2021/09/23 03:42:38;;;;;;;13.87;8.60;;;9.80;99.90;;;;;;5070933;28;20474;-60
2021/09/23 03:45:06;;;;;;;12.30;8.43;;;9.80;99.90;;;;;;5069505;28;20524;-60
2021/09/23 03:47:33;;;;;;;14.53;8.60;;;9.80;99.90;;;;;;5051239;28;20807;-60
2021/09/23 03:50:01;;;;;;;14.33;8.70;;;9.80;99.90;;;;;;5057324;28;20451;-60
2021/09/23 03:52:28;;;;;;;15.57;8.40;;;9.70;99.90;;;;;;5064919;28;20455;-60
2021/09/23 03:54:56;;;;;;;11.20;8.20;;;9.60;99.90;;;;;;5054444;28;20455;-60
2021/09/23 03:57:25;;;;;;;15.00;9.03;;;9.40;99.90;;;;;;5062709;28;20466;-60
2021/09/23 03:59:52;;;;;;;12.93;8.00;;;9.40;99.90;;;;;;5054461;28;20454;-59
2021/09/23 04:02:19;;;;;;;12.30;7.60;;;9.20;99.90;;;;;;5073321;28;20474;-60
2021/09/23 04:04:46;;;;;;;15.97;8.17;;;9.20;99.90;;;;;;5073683;28;20451;-60
2021/09/23 04:07:14;;;;;;;14.00;8.97;;;9.40;99.90;;;;;;5072716;28;20446;-60
2021/09/23 04:09:41;;;;;;;16.43;7.00;;;9.30;99.90;;;;;;5072597;28;20447;-60
2021/09/23 04:12:08;;;;;;;11.83;7.20;;;9.30;99.90;;;;;;5074321;28;20469;-60
2021/09/23 04:14:36;;;;;;;11.80;7.43;;;9.10;99.90;;;;;;5067577;28;20451;-59
2021/09/23 04:17:04;;;;;;;13.80;8.80;;;8.90;99.90;;;;;;5054188;28;20995;-60
2021/09/23 04:19:31;;;;;;;14.70;8.53;;;9.00;99.90;;;;;;5064621;28;20504;-59
2021/09/23 04:21:58;;;;;;;13.43;9.00;;;9.10;99.90;;;;;;5073191;28;20532;-60
2021/09/23 04:24:25;;;;;;;15.03;10.77;;;9.00;99.90;;;;;;5073685;28;20458;-59
2021/09/23 04:26:53;;;;;;;13.30;9.63;;;8.90;99.90;;;;;;5070375;28;20471;-60
2021/09/23 04:29:20;;;;;;;13.93;10.03;;;9.00;99.90;;;;;;5053954;28;20847;-60
2021/09/23 04:31:48;;;;;;;14.80;10.90;;;9.10;99.90;;;;;;5063779;28;20500;-59
2021/09/23 04:34:16;;;;;;;14.87;10.10;;;9.10;99.90;;;;;;5073876;28;20447;-60
2021/09/23 04:36:43;;;;;;;16.50;9.40;;;9.10;99.90;;;;;;5073558;28;20827;-60
2021/09/23 04:39:10;;;;;;;14.90;9.20;;;9.20;99.90;;;;;;5073727;28;20445;-60
2021/09/23 04:41:37;;;;;;;13.90;8.87;;;9.20;99.90;;;;;;5060231;28;20497;-60
2021/09/23 04:44:05;;;;;;;13.80;8.33;;;9.20;99.90;;;;;;5057976;28;20478;-60
2021/09/23 04:46:32;;;;;;;18.33;9.87;;;9.30;99.90;;;;;;5054592;28;20475;-60
2021/09/23 04:49:01;;;;;;;12.80;8.17;;;9.30;99.90;;;;;;5058451;28;20946;-60
2021/09/23 04:51:29;;;;;;;16.50;9.30;;;9.10;99.90;;;;;;5063287;28;20452;-60
2021/09/23 04:53:57;;;;;;;15.63;9.77;;;9.10;99.90;;;;;;5071329;28;20450;-59
2021/09/23 04:56:24;;;;;;;14.03;8.60;;;9.20;99.90;;;;;;5068148;28;20510;-60
2021/09/23 04:58:51;;;;;;;14.33;9.10;;;9.20;99.90;;;;;;5053393;28;20502;-59
2021/09/23 05:01:18;;;;;;;15.80;10.30;;;9.20;99.90;;;;;;5069123;28;20446;-59
2021/09/23 05:03:45;;;;;;;13.27;8.80;;;9.20;99.90;;;;;;5063956;28;20487;-60
2021/09/23 05:06:13;;;;;;;18.60;9.03;;;9.20;99.90;;;;;;5063182;28;20472;-59
2021/09/23 05:08:40;;;;;;;13.97;9.13;;;9.20;99.90;;;;;;5053488;28;20872;-60
2021/09/23 05:11:07;;;;;;;11.83;7.83;;;9.20;99.90;;;;;;5052731;28;20490;-59
2021/09/23 05:13:35;;;;;;;16.17;8.57;;;9.10;99.90;;;;;;5053277;28;22282;-60
2021/09/23 05:16:02;;;;;;;15.20;8.23;;;9.10;99.90;;;;;;5052826;28;20474;-59
2021/09/23 05:18:29;;;;;;;13.30;8.70;;;9.10;99.90;;;;;;5063345;28;20476;-60
2021/09/23 05:20:56;;;;;;;13.53;8.57;;;9.10;99.90;;;;;;5072164;28;21116;-59
2021/09/23 05:23:24;;;;;;;14.13;9.13;;;9.10;99.90;;;;;;5072265;28;20478;-59
2021/09/23 05:25:51;;;;;;;12.70;7.90;;;9.10;99.90;;;;;;5068730;28;20472;-59
2021/09/23 05:28:18;;;;;;;16.47;8.97;;;9.10;99.90;;;;;;5060637;28;21190;-60
2021/09/23 05:30:45;;;;;;;13.70;8.47;;;9.10;99.90;;;;;;5053836;28;20501;-60
2021/09/23 05:33:13;;;;;;;15.40;10.43;;;9.10;99.90;;;;;;5061444;28;20438;-60
2021/09/23 05:35:43;;;;;;;16.90;9.43;;;9.20;99.90;;;;;;5068095;28;20267;-60
2021/09/23 05:38:13;;;;;;;16.57;10.30;;;9.30;99.90;;;;;;5062698;28;20458;-59
2021/09/23 05:40:45;;;;;;;16.20;10.00;;;9.40;99.90;;;;;;5054222;28;20455;-60
2021/09/23 05:43:12;;;;;;;19.43;10.77;;;9.60;99.90;;;;;;5057995;28;20902;-60
2021/09/23 05:45:39;;;;;;;19.40;10.37;;;9.30;99.90;;;;;;5065815;28;20468;-60
2021/09/23 05:48:07;;;;;;;18.13;10.00;;;9.20;99.90;;;;;;5054958;28;20455;-60
2021/09/23 05:50:34;;;;;;;17.37;10.50;;;9.20;99.90;;;;;;5057094;28;20451;-60
2021/09/23 05:53:01;;;;;;;19.70;11.00;;;9.30;99.90;;;;;;5064065;28;20462;-59
2021/09/23 05:55:29;;;;;;;18.67;10.90;;;9.40;99.90;;;;;;5071979;28;20471;-59
2021/09/23 05:57:58;;;;;;;15.47;9.70;;;9.50;99.90;;;;;;5063726;28;20456;-60
2021/09/23 06:00:25;;;;;;;17.70;10.23;;;9.50;99.90;;;;;;5060314;28;20524;-60
2021/09/23 06:02:52;;;;;;;15.70;10.10;;;9.40;99.90;;;;;;5070608;28;20485;-60
2021/09/23 06:05:22;;;;;;;22.83;9.30;;;9.70;99.90;;;;;;5059029;28;20518;-59
2021/09/23 06:07:50;;;;;;;11.87;7.57;;;10.10;99.90;;;;;;5051869;28;20495;-59
2021/09/23 06:10:17;;;;;;;10.70;7.00;;;10.80;99.90;;;;;;5054444;28;20847;-59
2021/09/23 06:12:44;;;;;;;11.10;6.97;;;11.50;99.90;;;;;;5054160;28;20448;-60
2021/09/23 06:15:13;;;;;;;9.07;6.50;;;12.00;99.90;;;;;;5071778;28;20466;-60
2021/09/23 06:17:41;;;;;;;9.87;7.37;;;12.40;99.90;;;;;;5071445;28;20447;-60
2021/09/23 06:20:10;;;;;;;10.40;7.17;;;12.50;99.90;;;;;;5071795;28;20833;-59
2021/09/23 06:22:37;;;;;;;9.23;7.23;;;12.30;99.90;;;;;;5071839;28;20479;-60
2021/09/23 06:25:04;;;;;;;9.80;7.40;;;12.10;99.90;;;;;;5071702;28;20992;-60
2021/09/23 06:27:31;;;;;;;11.07;7.63;;;12.00;99.90;;;;;;5066314;28;20443;-58
2021/09/23 06:29:58;;;;;;;10.50;7.13;;;11.90;99.90;;;;;;5058837;28;20456;-59
2021/09/23 06:32:27;;;;;;;10.77;7.77;;;11.70;99.90;;;;;;5055790;28;20498;-59
2021/09/23 06:34:54;;;;;;;11.80;7.67;;;11.70;99.90;;;;;;5071726;28;20447;-59
2021/09/23 06:37:21;;;;;;;14.90;8.37;;;11.70;99.90;;;;;;5063753;28;20519;-60
2021/09/23 06:39:48;;;;;;;12.40;7.63;;;11.50;99.90;;;;;;5051588;28;20451;-59
2021/09/23 06:42:16;;;;;;;9.60;7.30;;;11.30;99.90;;;;;;5051976;28;20505;-60
2021/09/23 06:44:43;;;;;;;11.40;7.87;;;11.50;99.90;;;;;;5054931;28;20522;-59
2021/09/23 06:47:10;;;;;;;10.70;8.20;;;11.60;99.90;;;;;;5068328;28;20465;-59
2021/09/23 06:49:39;;;;;;;10.90;8.80;;;11.70;99.90;;;;;;5067274;28;20443;-59
2021/09/23 06:52:07;;;;;;;16.70;8.97;;;11.70;99.90;;;;;;5051172;28;20447;-59
2021/09/23 06:54:34;;;;;;;11.43;8.23;;;11.70;99.90;;;;;;5051525;28;20435;-60
2021/09/23 06:57:01;;;;;;;12.17;8.50;;;11.90;99.90;;;;;;5051210;28;20537;-59
2021/09/23 06:59:28;;;;;;;12.07;8.47;;;11.70;99.90;;;;;;5051656;28;20439;-59
2021/09/23 07:01:55;;;;;;;13.93;8.90;;;11.60;99.90;;;;;;5058240;28;20451;-60
2021/09/23 07:04:24;;;;;;;11.70;8.10;;;11.70;99.90;;;;;;5059171;28;20479;-59
2021/09/23 07:06:53;;;;;;;11.00;8.00;;;12.00;99.90;;;;;;5051193;28;20478;-59
2021/09/23 07:09:20;;;;;;;15.97;8.23;;;12.20;99.90;;;;;;5070811;28;20511;-59
2021/09/23 07:11:47;;;;;;;14.57;9.30;;;12.40;99.90;;;;;;5071322;28;20496;-60
2021/09/23 07:14:13;;;;;;;12.00;8.47;;;12.40;99.90;;;;;;5071338;28;20939;-61
2021/09/23 07:16:41;;;;;;;12.27;8.40;;;12.30;99.90;;;;;;5066533;28;20536;-60
2021/09/23 07:19:08;;;;;;;11.77;8.60;;;12.40;99.90;;;;;;5059009;28;20452;-60
2021/09/23 07:21:35;;;;;;;12.80;8.70;;;12.50;99.90;;;;;;5070931;28;20998;-60
2021/09/23 07:24:03;;;;;;;13.27;9.23;;;12.50;99.90;;;;;;5064251;28;20475;-60
2021/09/23 07:26:31;;;;;;;10.17;7.27;;;12.70;99.90;;;;;;5051613;28;20471;-60
2021/09/23 07:28:59;;;;;;;11.40;6.40;;;12.90;99.90;;;;;;5051316;28;20853;-60
2021/09/23 07:31:26;;;;;;;9.50;6.63;;;13.00;99.90;;;;;;5056110;28;20487;-60
2021/09/23 07:33:53;;;;;;;10.60;6.57;;;13.10;99.90;;;;;;5055243;28;20447;-60
2021/09/23 07:36:21;;;;;;;9.93;6.40;;;13.30;99.90;;;;;;5070051;28;20466;-59
2021/09/23 07:38:48;;;;;;;8.93;6.60;;;13.20;99.90;;;;;;5074425;28;20442;-60
2021/09/23 07:41:16;;;;;;;10.80;6.80;;;13.40;99.90;;;;;;5055931;28;20456;-60
2021/09/23 07:43:43;;;;;;;13.43;6.80;;;13.60;99.90;;;;;;5071204;28;20474;-60
2021/09/23 07:46:10;;;;;;;11.33;6.70;;;13.70;99.90;;;;;;5074049;28;20471;-60
2021/09/23 07:48:37;;;;;;;14.73;7.80;;;13.80;99.90;;;;;;5074738;28;20507;-60
2021/09/23 07:51:04;;;;;;;14.40;8.33;;;13.80;99.90;;;;;;5072964;28;20454;-60
2021/09/23 07:53:32;;;;;;;13.93;8.33;;;13.80;99.90;;;;;;5070120;28;20446;-60
2021/09/23 07:55:59;;;;;;;16.90;9.10;;;13.90;99.90;;;;;;5074152;28;20482;-60
2021/09/23 07:58:27;;;;;;;13.47;9.10;;;14.30;99.90;;;;;;5074592;28;20941;-60
2021/09/23 08:00:54;;;;;;;11.50;7.63;;;14.30;99.90;;;;;;5074212;28;20454;-60
2021/09/23 08:03:21;;;;;;;16.93;9.40;;;14.60;99.90;;;;;;5072326;28;20539;-59
2021/09/23 08:05:48;;;;;;;12.27;8.33;;;14.40;99.90;;;;;;5074022;28;20471;-60
2021/09/23 08:08:15;;;;;;;14.07;8.53;;;14.50;99.90;;;;;;5072471;28;20447;-59
2021/09/23 08:10:42;;;;;;;12.90;8.97;;;14.20;99.90;;;;;;5073559;28;20451;-60
2021/09/23 08:13:09;;;;;;;13.90;9.07;;;14.10;99.90;;;;;;5060537;28;20494;-59
2021/09/23 08:15:38;;;;;;;11.67;7.83;;;14.50;99.90;;;;;;5065526;28;20545;-60
2021/09/23 08:18:05;;;;;;;12.20;8.23;;;15.30;99.90;;;;;;5066381;28;21022;-60
2021/09/23 08:20:32;;;;;;;13.90;8.50;;;15.10;99.90;;;;;;5072424;28;20631;-60
2021/09/23 08:22:58;;;;;;;12.70;7.80;;;15.20;99.90;;;;;;5074196;28;20446;-60
2021/09/23 08:25:26;;;;;;;10.90;7.40;;;15.80;99.90;;;;;;5072375;28;20600;-60
2021/09/23 08:27:53;;;;;;;11.43;7.50;;;16.40;99.90;;;;;;5073774;28;20496;-60
2021/09/23 08:30:20;;;;;;;11.20;7.43;;;16.50;99.90;;;;;;5073617;28;20500;-60
2021/09/23 08:32:48;;;;;;;11.37;7.70;;;17.10;99.90;;;;;;5073941;28;21001;-60
2021/09/23 08:35:15;;;;;;;11.13;7.27;;;16.80;99.90;;;;;;5073928;28;20494;-60
2021/09/23 08:37:43;;;;;;;9.40;6.93;;;16.70;99.90;;;;;;5073922;28;20450;-60
2021/09/23 08:40:11;;;;;;;9.70;7.13;;;17.20;99.90;;;;;;5073279;28;20455;-59
2021/09/23 08:42:38;;;;;;;9.90;7.20;;;17.70;99.90;;;;;;5073262;28;20454;-60
2021/09/23 08:45:07;;;;;;;7.93;6.40;;;18.20;99.90;;;;;;5070777;28;20938;-60
2021/09/23 08:47:34;;;;;;;10.00;7.33;;;18.30;99.90;;;;;;5073836;28;20500;-60
2021/09/23 08:50:03;;;;;;;13.97;8.73;;;18.20;99.90;;;;;;5073527;28;20866;-60
2021/09/23 08:52:30;;;;;;;11.23;8.20;;;17.80;99.90;;;;;;5073366;28;20446;-61
2021/09/23 08:55:02;;;;;;;14.33;9.30;;;17.70;99.90;;;;;;5073420;28;20466;-60
2021/09/23 08:57:29;;;;;;;16.43;9.63;;;17.10;99.90;;;;;;5073749;28;20450;-60
2021/09/23 08:59:56;;;;;;;13.57;9.50;;;17.70;99.90;;;;;;5073315;28;20447;-60
2021/09/23 09:02:26;;;;;;;13.87;10.00;;;17.30;99.90;;;;;;5071593;28;20512;-60
2021/09/23 09:04:54;;;;;;;20.87;10.63;;;16.90;99.90;;;;;;5073133;28;21011;-60
2021/09/23 09:07:27;;;;;;;14.87;9.90;;;16.90;99.90;;;;;;5073268;28;20443;-60
2021/09/23 09:10:00;;;;;;;12.17;9.40;;;17.40;99.90;;;;;;5073219;28;20493;-60
2021/09/23 09:12:30;;;;;;;14.60;10.40;;;17.60;99.90;;;;;;5073286;28;20446;-60
2021/09/23 09:14:58;;;;;;;15.03;10.30;;;16.80;99.90;;;;;;5073248;28;20473;-60
2021/09/23 09:17:26;;;;;;;27.43;10.87;;;15.70;99.90;;;;;;5073412;28;20512;-60
2021/09/23 09:19:57;;;;;;;16.10;10.60;;;15.50;99.90;;;;;;5071369;28;20571;-61
2021/09/23 09:22:27;;;;;;;17.53;10.47;;;15.60;99.90;;;;;;5071034;28;20467;-60
2021/09/23 09:24:57;;;;;;;19.43;12.73;;;15.80;99.90;;;;;;5059744;28;20916;-60
2021/09/23 09:27:33;;;;;;;14.87;9.70;;;16.50;99.90;;;;;;5061967;28;20447;-60
2021/09/23 09:30:02;;;;;;;14.97;9.63;;;16.60;99.90;;;;;;5065964;28;20470;-60
2021/09/23 09:32:37;;;;;;;16.40;10.50;;;16.80;99.90;;;;;;5053137;28;20448;-59
2021/09/23 09:35:06;;;;;;;13.47;9.27;;;17.30;99.90;;;;;;5052653;28;20475;-59
2021/09/23 09:37:34;;;;;;;13.57;9.67;;;17.80;99.90;;;;;;5052686;28;20872;-59
2021/09/23 09:40:02;;;;;;;15.37;10.50;;;18.30;99.90;;;;;;5069137;28;20443;-61
2021/09/23 09:42:31;;;;;;;16.60;10.07;;;18.90;99.90;;;;;;5071490;28;20516;-59
2021/09/23 09:45:00;;;;;;;12.97;9.57;;;19.50;99.90;;;;;;5061234;28;20486;-60
2021/09/23 09:47:29;;;;;;;12.37;9.03;;;19.10;99.90;;;;;;5063378;28;20455;-60
2021/09/23 09:49:57;;;;;;;15.50;10.17;;;18.80;99.90;;;;;;5062604;28;21045;-60
2021/09/23 09:52:29;;;;;;;12.97;9.80;;;18.60;99.90;;;;;;5068190;28;20447;-60
2021/09/23 09:55:08;;;;;;;16.57;10.70;;;18.90;99.90;;;;;;5071892;28;20454;-60
2021/09/23 09:57:44;;;;;;;14.37;10.43;;;19.40;99.90;;;;;;5072112;28;20859;-60
2021/09/23 10:00:13;;;;;;;14.73;9.80;;;19.40;99.90;;;;;;5070069;28;20455;-60
2021/09/23 10:02:42;;;;;;;18.80;11.73;;;19.10;99.90;;;;;;5071830;28;20447;-59
2021/09/23 10:05:10;;;;;;;14.80;10.37;;;19.20;99.90;;;;;;5067510;28;20509;-60
2021/09/23 10:07:37;;;;;;;13.40;10.03;;;18.70;99.90;;;;;;5055610;28;20527;-59
2021/09/23 10:10:07;;;;;;;14.53;10.30;;;18.80;99.90;;;;;;5054826;28;20474;-60
2021/09/23 10:12:36;;;;;;;13.50;9.80;;;18.80;99.90;;;;;;5071663;28;20500;-60
2021/09/23 10:15:04;;;;;;;13.60;9.70;;;19.20;99.90;;;;;;5072066;28;20512;-60
2021/09/23 10:17:31;;;;;;;15.03;11.17;;;19.90;99.90;;;;;;5070300;28;20521;-59
2021/09/23 10:19:59;;;;;;;15.83;11.43;;;19.90;99.90;;;;;;5071754;28;20470;-61
2021/09/23 10:22:26;;;;;;;16.53;10.80;;;19.60;99.90;;;;;;5068742;28;20486;-59
2021/09/23 10:24:55;;;;;;;18.20;11.40;;;18.50;99.90;;;;;;5067880;28;20539;-59
2021/09/23 10:30:11;;;;;;;16.40;11.17;;;18.50;99.90;;;;;;5071725;28;20423;-59
2021/09/23 10:32:38;;;;;;;14.20;9.47;;;18.90;99.90;;;;;;5052121;28;20945;-59
2021/09/23 10:35:05;;;;;;;15.73;10.20;;;19.00;99.90;;;;;;5052616;28;20516;-59
2021/09/23 10:37:33;;;;;;;14.67;10.50;;;19.20;99.90;;;;;;5058696;28;20508;-61
2021/09/23 10:40:01;;;;;;;16.73;10.33;;;19.50;99.90;;;;;;5065366;28;20444;-60
2021/09/23 10:42:30;;;;;;;13.77;10.17;;;18.90;99.90;;;;;;5060950;28;20501;-58
2021/09/23 10:44:58;;;;;;;15.47;10.87;;;19.10;99.90;;;;;;5055846;28;20484;-59
2021/09/23 10:47:28;;;;;;;14.13;10.20;;;19.20;99.90;;;;;;5053860;28;20858;-59
2021/09/23 10:49:56;;;;;;;15.40;10.57;;;19.00;99.90;;;;;;5067773;28;20448;-59
2021/09/23 10:52:25;;;;;;;16.67;10.90;;;18.60;99.90;;;;;;5052539;28;20513;-59
2021/09/23 10:54:53;;;;;;;13.40;10.57;;;18.50;99.90;;;;;;5051555;28;20530;-59
2021/09/23 10:57:22;;;;;;;14.50;10.30;;;18.70;99.90;;;;;;5051460;28;20448;-59
2021/09/23 10:59:51;;;;;;;14.90;10.03;;;19.00;99.90;;;;;;5051572;28;20451;-58
2021/09/23 11:02:23;;;;;;;16.33;10.37;;;19.10;99.90;;;;;;5051180;28;20485;-58
2021/09/23 11:04:52;;;;;;;15.03;10.30;;;19.20;99.90;;;;;;5055358;28;20479;-59
2021/09/23 11:07:19;;;;;;;15.53;10.13;;;18.60;99.90;;;;;;5065575;28;20451;-59
2021/09/23 11:10:09;;;;;;;16.97;10.90;;;18.40;99.90;;;;;;5073435;28;20504;-59
2021/09/23 11:12:37;;;;;;;16.17;10.83;;;18.10;99.90;;;;;;5068756;28;20443;-57
2021/09/23 11:15:07;;;;;;;14.50;10.30;;;17.70;99.90;;;;;;5066584;28;20464;-58
2021/09/23 11:17:34;;;;;;;15.70;10.07;;;17.70;99.90;;;;;;5055716;28;20451;-58
2021/09/23 11:20:04;;;;;;;13.77;9.80;;;18.30;99.90;;;;;;5062118;28;20442;-59
2021/09/23 11:22:37;;;;;;;13.40;9.53;;;18.40;99.90;;;;;;5064710;28;20801;-58
2021/09/23 11:25:08;;;;;;;15.53;9.80;;;18.80;99.90;;;;;;5073377;28;21056;-58
2021/09/23 11:27:36;;;;;;;17.47;9.33;;;18.70;99.90;;;;;;5062127;28;20520;-58
2021/09/23 11:30:06;;;;;;;16.07;10.37;;;18.70;99.90;;;;;;5073958;28;20952;-60
2021/09/23 11:32:33;;;;;;;15.10;10.60;;;18.50;99.90;;;;;;5075122;28;20447;-59
2021/09/23 11:35:02;;;;;;;15.73;10.90;;;18.60;99.90;;;;;;5062680;28;20517;-60
2021/09/23 11:37:33;;;;;;;13.60;9.70;;;18.60;99.90;;;;;;5055115;28;20885;-59
2021/09/23 11:40:02;;;;;;;17.50;10.20;;;18.70;99.90;;;;;;5055004;28;20444;-59
2021/09/23 11:42:31;;;;;;;15.10;9.20;;;18.70;99.90;;;;;;5054991;28;20521;-59
2021/09/23 11:45:13;;;;;;;13.30;9.50;;;18.60;99.90;;;;;;5058326;28;20486;-58
2021/09/23 11:47:52;;;;;;;12.87;9.20;;;18.10;99.90;;;;;;5054879;28;20962;-59
2021/09/23 11:50:41;;;;;;;14.83;9.50;;;18.00;99.90;;;;;;5053235;28;20535;-58
2021/09/23 11:53:10;;;;;;;16.83;10.80;;;18.20;99.90;;;;;;5048800;28;20440;-60
2021/09/23 11:55:41;;;;;;;14.37;10.00;;;18.20;99.90;;;;;;5054476;28;20477;-59
2021/09/23 11:58:11;;;;;;;16.17;11.00;;;18.20;99.90;;;;;;5054788;28;21024;-58
2021/09/23 12:00:41;;;;;;;14.00;9.50;;;18.30;99.90;;;;;;5056298;28;20520;-58
2021/09/23 12:03:10;;;;;;;14.80;9.67;;;18.40;99.90;;;;;;5054478;28;20444;-57
2021/09/23 12:05:38;;;;;;;13.10;8.93;;;18.60;99.90;;;;;;5056662;28;21054;-58
2021/09/23 12:08:10;;;;;;;13.13;9.20;;;18.80;99.90;;;;;;5072803;28;20528;-58
2021/09/23 12:10:45;;;;;;;14.13;9.30;;;18.90;99.90;;;;;;5074184;28;20446;-58
2021/09/23 12:13:18;;;;;;;11.10;8.73;;;18.90;99.90;;;;;;5074256;28;21009;-58
2021/09/23 12:15:52;;;;;;;11.40;7.37;;;18.90;99.90;;;;;;5073684;28;20478;-58
2021/09/23 12:18:19;;;;;;;13.67;9.70;;;19.00;99.90;;;;;;5074343;28;20446;-58
2021/09/23 12:20:49;;;;;;;18.03;10.13;;;19.10;99.90;;;;;;5073951;28;21123;-57
2021/09/23 12:23:38;;;;;;;11.07;8.23;;;19.20;99.90;;;;;;5078399;28;21109;-58
2021/09/23 12:26:21;;;;;;;10.80;7.00;;;19.30;99.90;;;;;;5056390;28;20555;-60
2021/09/23 12:28:55;;;;;;;11.00;7.83;;;19.40;99.90;;;;;;5065382;28;20448;-59
2021/09/23 12:31:39;;;;;;;14.10;8.87;;;19.50;99.90;;;;;;5053840;28;20498;-59
2021/09/23 12:34:09;;;;;;;12.33;8.67;;;19.10;99.90;;;;;;5060032;28;20542;-60
2021/09/23 12:36:38;;;;;;;14.97;10.00;;;19.10;99.90;;;;;;5073893;28;21021;-59
2021/09/23 12:39:19;;;;;;;18.90;9.57;;;19.10;99.90;;;;;;5073987;28;20516;-60
2021/09/23 12:42:09;;;;;;;13.63;9.43;;;18.80;99.90;;;;;;5053710;28;20874;-59
2021/09/23 12:44:39;;;;;;;14.80;10.20;;;18.70;99.90;;;;;;5047460;28;20490;-60
2021/09/23 12:47:13;;;;;;;12.67;9.57;;;18.40;99.90;;;;;;5071916;28;20508;-59